Time;durP1;ratioP1;P1;durP2;ratioP2;P2;SDS_P1;SDS_P2;PMS_P1;PMS_P2;Temp;Humidity;BMP_temperature;BMP_pressure;BME280_temperature;BME280_humidity;BME280_pressure;Samples;Min_cycle;Max_cycle;Signal;HPM_P1;HPM_P2
2022/04/17 00:00:47;;;;;;;;;;;12.80;77.10;;;;;;4436645;32;44313;-81
2022/04/17 00:03:14;;;;;;;;;;;12.80;77.70;;;;;;4450785;32;43949;-81
2022/04/17 00:05:41;;;;;;;;;;;12.80;77.00;;;;;;4437393;32;44027;-81
2022/04/17 00:08:08;;;;;;;;;;;12.80;75.40;;;;;;4436832;32;44255;-81
2022/04/17 00:10:36;;;;;;;;;;;12.70;76.20;;;;;;4450327;32;46079;-81
2022/04/17 00:13:04;;;;;;;;;;;12.70;77.50;;;;;;4437049;32;44171;-81
2022/04/17 00:15:31;;;;;;;;;;;12.70;77.80;;;;;;4436862;32;43846;-81
2022/04/17 00:17:58;;;;;;;;;;;12.70;77.50;;;;;;4450992;32;43847;-80
2022/04/17 00:20:26;;;;;;;;;;;12.70;75.10;;;;;;4450620;32;43189;-81
2022/04/17 00:22:53;;;;;;;;;;;12.70;76.30;;;;;;4436334;32;45745;-81
2022/04/17 00:25:20;;;;;;;;;;;12.60;74.30;;;;;;4450941;32;43454;-81
2022/04/17 00:27:47;;;;;;;;;;;12.60;76.20;;;;;;4451652;32;44848;-82
2022/04/17 00:30:14;;;;;;;;;;;12.60;74.30;;;;;;4453344;32;44176;-81
2022/04/17 00:32:41;;;;;;;;;;;12.50;75.40;;;;;;4453313;32;44280;-81
2022/04/17 00:35:10;;;;;;;;;;;12.50;75.50;;;;;;4453118;32;44163;-81
2022/04/17 00:37:37;;;;;;;;;;;12.60;75.40;;;;;;4439194;32;43312;-81
2022/04/17 00:40:05;;;;;;;;;;;12.50;74.20;;;;;;4453520;32;43891;-81
2022/04/17 00:42:32;;;;;;;;;;;12.50;74.40;;;;;;4452964;32;44198;-81
2022/04/17 00:44:59;;;;;;;;;;;12.50;75.20;;;;;;4453146;32;43276;-81
2022/04/17 00:47:26;;;;;;;;;;;12.50;74.00;;;;;;4439084;32;43008;-81
2022/04/17 00:49:53;;;;;;;;;;;12.50;73.60;;;;;;4439306;32;44658;-81
2022/04/17 00:52:21;;;;;;;;;;;12.50;73.30;;;;;;4452994;32;43233;-81
2022/04/17 00:54:48;;;;;;;;;;;12.40;72.10;;;;;;4439544;32;42892;-80
2022/04/17 00:57:16;;;;;;;;;;;12.40;73.10;;;;;;4439442;32;42744;-81
2022/04/17 00:59:47;;;;;;;;;;;12.40;74.00;;;;;;4439493;32;44118;-81
2022/04/17 01:02:14;;;;;;;;;;;12.40;72.90;;;;;;4452990;32;43462;-81
2022/04/17 01:04:42;;;;;;;;;;;12.40;74.10;;;;;;4452739;32;43359;-81
2022/04/17 01:07:12;;;;;;;;;;;12.40;73.00;;;;;;4452753;32;43892;-81
2022/04/17 01:09:39;;;;;;;;;;;12.40;74.30;;;;;;4439170;32;44180;-81
2022/04/17 01:12:08;;;;;;;;;;;12.30;74.90;;;;;;4452792;32;43309;-81
2022/04/17 01:14:39;;;;;;;;;;;12.40;75.70;;;;;;4452577;32;43289;-81
2022/04/17 01:17:09;;;;;;;;;;;12.40;75.00;;;;;;4452892;32;44085;-81
2022/04/17 01:19:37;;;;;;;;;;;12.40;73.20;;;;;;4439246;32;43471;-81
2022/04/17 01:22:14;;;;;;;;;;;12.30;73.70;;;;;;4438970;32;44680;-81
2022/04/17 01:27:26;;;;;;;;;;;12.30;74.80;;;;;;4452574;32;44054;-80
2022/04/17 01:29:54;;;;;;;;;;;12.30;73.80;;;;;;4452823;32;44690;-81
2022/04/17 01:32:21;;;;;;;;;;;12.30;74.20;;;;;;4438807;32;43446;-81
2022/04/17 01:34:49;;;;;;;;;;;12.30;75.80;;;;;;4452736;32;43241;-81
2022/04/17 01:37:17;;;;;;;;;;;12.30;73.40;;;;;;4438934;32;44064;-81
2022/04/17 01:39:45;;;;;;;;;;;12.30;74.20;;;;;;4438560;32;43226;-81
2022/04/17 01:42:12;;;;;;;;;;;12.20;73.60;;;;;;4452427;32;43807;-81
2022/04/17 01:44:40;;;;;;;;;;;12.20;74.00;;;;;;4452661;32;43573;-82
2022/04/17 01:47:07;;;;;;;;;;;12.20;73.60;;;;;;4452540;32;42855;-81
2022/04/17 01:49:34;;;;;;;;;;;12.20;75.20;;;;;;4452038;32;46015;-81
2022/04/17 01:52:02;;;;;;;;;;;12.20;71.80;;;;;;4452095;32;42598;-81
2022/04/17 01:54:29;;;;;;;;;;;12.20;73.20;;;;;;4452002;32;43564;-80
2022/04/17 01:56:56;;;;;;;;;;;12.20;73.40;;;;;;4452548;32;43514;-81
2022/04/17 01:59:24;;;;;;;;;;;12.20;72.90;;;;;;4438413;32;44274;-81
2022/04/17 02:01:51;;;;;;;;;;;12.20;74.40;;;;;;4452383;32;43236;-81
2022/04/17 02:04:19;;;;;;;;;;;12.20;72.00;;;;;;4438055;32;44166;-81
2022/04/17 02:06:47;;;;;;;;;;;12.10;73.70;;;;;;4452498;32;43672;-81
2022/04/17 02:09:15;;;;;;;;;;;12.20;74.70;;;;;;4451762;32;43832;-81
2022/04/17 02:11:42;;;;;;;;;;;12.10;75.60;;;;;;4451782;32;42709;-81
2022/04/17 02:14:10;;;;;;;;;;;12.20;76.30;;;;;;4452071;32;43816;-81
2022/04/17 02:16:37;;;;;;;;;;;12.20;77.00;;;;;;4437888;32;44179;-81
2022/04/17 02:19:05;;;;;;;;;;;12.20;74.20;;;;;;4437880;32;44093;-80
2022/04/17 02:21:32;;;;;;;;;;;12.20;73.70;;;;;;4437738;32;42619;-81
2022/04/17 02:24:00;;;;;;;;;;;12.20;76.40;;;;;;4451789;32;43498;-81
2022/04/17 02:26:28;;;;;;;;;;;12.20;76.70;;;;;;4451494;32;44703;-81
2022/04/17 02:28:56;;;;;;;;;;;12.20;75.80;;;;;;4451980;32;42728;-81
2022/04/17 02:31:24;;;;;;;;;;;12.20;75.50;;;;;;4438224;32;45151;-81
2022/04/17 02:33:51;;;;;;;;;;;12.20;76.00;;;;;;4451476;32;43843;-80
2022/04/17 02:36:19;;;;;;;;;;;12.10;76.30;;;;;;4452302;32;20003;-81
2022/04/17 02:38:46;;;;;;;;;;;12.10;76.90;;;;;;4451733;32;43258;-81
2022/04/17 02:41:13;;;;;;;;;;;12.20;77.00;;;;;;4437655;32;45753;-80
2022/04/17 02:43:40;;;;;;;;;;;12.20;76.80;;;;;;4437275;32;42352;-81
2022/04/17 02:46:07;;;;;;;;;;;12.20;78.40;;;;;;4437522;32;44195;-80
2022/04/17 02:48:35;;;;;;;;;;;12.20;78.30;;;;;;4451152;32;45365;-80
2022/04/17 02:51:02;;;;;;;;;;;12.20;78.20;;;;;;4450871;32;45268;-81
2022/04/17 02:53:33;;;;;;;;;;;12.20;78.50;;;;;;4451152;32;43899;-81
2022/04/17 02:56:00;;;;;;;;;;;12.20;78.40;;;;;;4437378;32;44084;-80
2022/04/17 02:58:28;;;;;;;;;;;12.10;77.70;;;;;;4451021;32;43564;-80
2022/04/17 03:06:27;;;;;;;;;;;12.00;78.10;;;;;;4452612;32;20003;-81
2022/04/17 03:08:54;;;;;;;;;;;12.00;78.80;;;;;;4451342;32;44290;-81
2022/04/17 03:11:21;;;;;;;;;;;12.00;78.00;;;;;;4450914;32;43002;-80
2022/04/17 03:13:48;;;;;;;;;;;12.00;79.30;;;;;;4437537;32;43822;-81
2022/04/17 03:16:16;;;;;;;;;;;12.00;79.90;;;;;;4437181;32;44196;-81
2022/04/17 03:18:43;;;;;;;;;;;12.00;79.40;;;;;;4451366;32;44848;-80
2022/04/17 03:21:10;;;;;;;;;;;12.00;79.90;;;;;;4437616;32;44304;-80
2022/04/17 03:23:37;;;;;;;;;;;11.90;77.00;;;;;;4437537;32;43060;-80
2022/04/17 03:26:05;;;;;;;;;;;11.90;79.20;;;;;;4450939;32;43019;-80
2022/04/17 03:28:32;;;;;;;;;;;11.90;80.00;;;;;;4437058;32;42881;-81
2022/04/17 03:30:59;;;;;;;;;;;11.90;80.70;;;;;;4450757;32;44032;-81
2022/04/17 03:33:26;;;;;;;;;;;11.80;79.60;;;;;;4437351;32;43404;-81
2022/04/17 03:35:54;;;;;;;;;;;11.90;79.70;;;;;;4450605;32;44822;-81
2022/04/17 03:38:21;;;;;;;;;;;11.80;77.70;;;;;;4436958;32;44957;-81
2022/04/17 03:40:48;;;;;;;;;;;11.70;76.70;;;;;;4451006;32;43098;-81
2022/04/17 03:43:15;;;;;;;;;;;11.60;75.20;;;;;;4436953;32;43944;-81
2022/04/17 03:45:46;;;;;;;;;;;11.60;76.80;;;;;;4451110;32;44940;-81
2022/04/17 03:48:17;;;;;;;;;;;11.60;78.80;;;;;;4450641;32;43838;-81
2022/04/17 03:50:44;;;;;;;;;;;11.60;79.30;;;;;;4450915;32;44563;-81
2022/04/17 03:53:12;;;;;;;;;;;11.60;78.90;;;;;;4436865;32;44100;-81
2022/04/17 03:55:39;;;;;;;;;;;11.60;79.70;;;;;;4436683;32;42598;-80
2022/04/17 03:58:06;;;;;;;;;;;11.70;80.70;;;;;;4450962;32;43192;-80
2022/04/17 04:00:33;;;;;;;;;;;11.60;79.40;;;;;;4437250;32;43251;-81
2022/04/17 04:03:03;;;;;;;;;;;11.50;78.20;;;;;;4451764;32;43770;-81
2022/04/17 04:05:31;;;;;;;;;;;11.50;78.20;;;;;;4454305;32;43854;-81
2022/04/17 04:07:58;;;;;;;;;;;11.50;78.50;;;;;;4453703;32;43249;-81
2022/04/17 04:10:26;;;;;;;;;;;11.50;79.60;;;;;;4453874;32;43291;-81
2022/04/17 04:12:53;;;;;;;;;;;11.50;80.80;;;;;;4439913;32;43031;-81
2022/04/17 04:15:20;;;;;;;;;;;11.50;80.50;;;;;;4440037;32;43817;-81
2022/04/17 04:17:47;;;;;;;;;;;11.40;80.60;;;;;;4453847;32;43645;-81
2022/04/17 04:20:14;;;;;;;;;;;11.40;80.60;;;;;;4453525;32;43810;-81
2022/04/17 04:22:41;;;;;;;;;;;11.40;81.20;;;;;;4453485;32;42581;-81
2022/04/17 04:25:08;;;;;;;;;;;11.40;81.50;;;;;;4453407;32;43294;-81
2022/04/17 04:30:21;;;;;;;;;;;11.30;78.20;;;;;;4453795;32;43890;-81
2022/04/17 04:32:56;;;;;;;;;;;11.20;77.90;;;;;;4439538;32;43002;-81
2022/04/17 04:35:26;;;;;;;;;;;11.10;78.90;;;;;;4440347;32;43238;-81
2022/04/17 04:37:53;;;;;;;;;;;11.10;80.20;;;;;;4439331;32;43377;-81
2022/04/17 04:40:20;;;;;;;;;;;11.20;81.50;;;;;;4439210;32;44206;-81
2022/04/17 04:42:48;;;;;;;;;;;11.20;82.10;;;;;;4453431;32;43446;-81
2022/04/17 04:48:01;;;;;;;;;;;11.20;82.20;;;;;;4453545;32;42696;-81
2022/04/17 04:50:28;;;;;;;;;;;11.20;81.10;;;;;;4439482;32;44467;-81
2022/04/17 04:52:56;;;;;;;;;;;11.20;80.60;;;;;;4439484;32;44727;-81
2022/04/17 04:55:22;;;;;;;;;;;11.10;79.40;;;;;;4439032;32;42656;-81
2022/04/17 04:57:50;;;;;;;;;;;11.10;81.60;;;;;;4439296;32;43785;-81
2022/04/17 05:00:17;;;;;;;;;;;11.10;81.80;;;;;;4452904;32;43026;-81
2022/04/17 05:02:44;;;;;;;;;;;11.10;82.30;;;;;;4438838;32;44241;-81
2022/04/17 05:05:11;;;;;;;;;;;11.10;82.40;;;;;;4452737;32;43988;-81
2022/04/17 05:07:38;;;;;;;;;;;11.10;82.10;;;;;;4452725;32;42884;-80
2022/04/17 05:10:06;;;;;;;;;;;11.10;81.50;;;;;;4453133;32;44278;-81
2022/04/17 05:12:33;;;;;;;;;;;11.00;81.20;;;;;;4452982;32;43201;-81
2022/04/17 05:15:01;;;;;;;;;;;11.00;82.50;;;;;;4438316;32;44034;-80
2022/04/17 05:17:28;;;;;;;;;;;11.00;82.30;;;;;;4439222;32;44057;-81
2022/04/17 05:19:55;;;;;;;;;;;11.00;82.60;;;;;;4452516;32;45024;-81
2022/04/17 05:22:31;;;;;;;;;;;11.00;82.40;;;;;;4438706;32;45664;-81
2022/04/17 05:24:58;;;;;;;;;;;11.00;82.50;;;;;;4439062;32;44570;-81
2022/04/17 05:27:27;;;;;;;;;;;11.00;82.80;;;;;;4438697;32;44544;-81
2022/04/17 05:29:54;;;;;;;;;;;10.90;83.00;;;;;;4438504;32;42565;-81
2022/04/17 05:32:21;;;;;;;;;;;10.90;84.10;;;;;;4452944;32;43351;-81
2022/04/17 05:34:48;;;;;;;;;;;11.00;83.40;;;;;;4452335;32;42787;-81
2022/04/17 05:37:15;;;;;;;;;;;10.90;83.50;;;;;;4438921;32;43950;-80
2022/04/17 05:39:42;;;;;;;;;;;10.90;83.30;;;;;;4452293;32;43791;-81
2022/04/17 05:42:10;;;;;;;;;;;10.90;83.30;;;;;;4451922;32;44140;-80
2022/04/17 05:44:43;;;;;;;;;;;10.90;83.80;;;;;;4452905;32;43927;-80
2022/04/17 05:47:11;;;;;;;;;;;10.90;83.70;;;;;;4438781;32;44144;-81
2022/04/17 05:49:38;;;;;;;;;;;10.90;83.90;;;;;;4452557;32;43503;-80
2022/04/17 05:52:05;;;;;;;;;;;10.90;83.80;;;;;;4452563;32;43849;-80
2022/04/17 05:54:32;;;;;;;;;;;10.90;83.40;;;;;;4452185;32;43269;-80
2022/04/17 05:57:00;;;;;;;;;;;10.80;82.50;;;;;;4438131;32;42332;-80
2022/04/17 05:59:27;;;;;;;;;;;10.80;83.50;;;;;;4438289;32;43460;-80
2022/04/17 06:01:54;;;;;;;;;;;10.80;84.50;;;;;;4452282;32;44169;-80
2022/04/17 06:04:21;;;;;;;;;;;10.80;84.40;;;;;;4437929;32;42553;-80
2022/04/17 06:06:48;;;;;;;;;;;10.80;84.10;;;;;;4437982;32;44115;-81
2022/04/17 06:09:15;;;;;;;;;;;10.90;84.60;;;;;;4452168;32;43033;-81
2022/04/17 06:11:42;;;;;;;;;;;10.90;84.20;;;;;;4451844;32;44938;-80
2022/04/17 06:14:09;;;;;;;;;;;10.90;84.90;;;;;;4438175;32;45501;-80
2022/04/17 06:16:36;;;;;;;;;;;10.90;85.30;;;;;;4437875;32;44229;-80
2022/04/17 06:19:05;;;;;;;;;;;10.90;85.80;;;;;;4438215;32;43084;-80
2022/04/17 06:21:38;;;;;;;;;;;10.90;85.90;;;;;;4439117;32;43517;-80
2022/04/17 06:24:05;;;;;;;;;;;10.90;86.20;;;;;;4452064;32;43948;-80
2022/04/17 06:26:33;;;;;;;;;;;10.90;86.60;;;;;;4437058;32;44218;-80
2022/04/17 06:29:03;;;;;;;;;;;10.90;86.40;;;;;;4437781;32;44106;-80
2022/04/17 06:31:30;;;;;;;;;;;10.80;86.50;;;;;;4438053;32;42555;-81
2022/04/17 06:33:57;;;;;;;;;;;10.80;87.40;;;;;;4451849;32;45961;-80
2022/04/17 06:36:25;;;;;;;;;;;10.80;88.00;;;;;;4452096;32;43310;-80
2022/04/17 06:38:52;;;;;;;;;;;10.80;88.40;;;;;;4438499;32;20003;-80
2022/04/17 06:41:19;;;;;;;;;;;10.80;88.30;;;;;;4451265;32;43204;-80
2022/04/17 06:43:50;;;;;;;;;;;10.80;87.90;;;;;;4438432;32;42935;-80
2022/04/17 06:46:17;;;;;;;;;;;10.80;87.50;;;;;;4451219;32;42793;-80
2022/04/17 06:48:45;;;;;;;;;;;10.90;88.30;;;;;;4437475;32;43243;-80
2022/04/17 06:51:12;;;;;;;;;;;10.90;86.80;;;;;;4437498;32;44113;-80
2022/04/17 06:53:39;;;;;;;;;;;10.80;86.80;;;;;;4437333;32;42752;-80
2022/04/17 06:56:07;;;;;;;;;;;10.90;87.10;;;;;;4451429;32;42920;-80
2022/04/17 06:58:34;;;;;;;;;;;10.90;86.60;;;;;;4451596;32;43910;-80
2022/04/17 07:01:01;;;;;;;;;;;10.90;87.10;;;;;;4451441;32;44268;-80
2022/04/17 07:03:28;;;;;;;;;;;10.90;87.60;;;;;;4451141;32;44130;-80
2022/04/17 07:05:55;;;;;;;;;;;10.90;87.60;;;;;;4437210;32;44568;-80
2022/04/17 07:08:22;;;;;;;;;;;10.90;87.80;;;;;;4437197;32;43288;-80
2022/04/17 07:10:49;;;;;;;;;;;10.90;87.90;;;;;;4451311;32;43922;-80
2022/04/17 07:13:18;;;;;;;;;;;10.90;86.80;;;;;;4437550;32;42378;-80
2022/04/17 07:15:45;;;;;;;;;;;11.00;87.50;;;;;;4451368;32;44081;-80
2022/04/17 07:18:12;;;;;;;;;;;11.00;85.30;;;;;;4437188;32;43560;-80
2022/04/17 07:20:39;;;;;;;;;;;11.00;85.10;;;;;;4451075;32;42704;-80
2022/04/17 07:23:06;;;;;;;;;;;11.00;84.50;;;;;;4437387;32;44225;-80
2022/04/17 07:25:34;;;;;;;;;;;11.00;85.50;;;;;;4450714;32;44223;-80
2022/04/17 07:28:01;;;;;;;;;;;11.00;84.70;;;;;;4451126;32;43864;-80
2022/04/17 07:30:29;;;;;;;;;;;11.00;84.00;;;;;;4450798;32;44857;-80
2022/04/17 07:32:57;;;;;;;;;;;11.00;84.30;;;;;;4450865;32;43639;-80
2022/04/17 07:35:25;;;;;;;;;;;11.10;84.60;;;;;;4437573;32;43997;-80
2022/04/17 07:37:59;;;;;;;;;;;11.10;85.40;;;;;;4437003;32;42722;-80
2022/04/17 07:40:27;;;;;;;;;;;11.10;85.30;;;;;;4450887;32;44342;-80
2022/04/17 07:42:56;;;;;;;;;;;11.10;85.60;;;;;;4436958;32;42838;-82
2022/04/17 07:45:23;;;;;;;;;;;11.20;84.90;;;;;;4436776;32;42631;-82
2022/04/17 07:47:50;;;;;;;;;;;11.20;85.60;;;;;;4436889;32;43042;-82
2022/04/17 07:50:18;;;;;;;;;;;11.20;85.80;;;;;;4450600;32;43470;-81
2022/04/17 07:52:45;;;;;;;;;;;11.20;85.30;;;;;;4450967;32;43560;-82
2022/04/17 07:55:13;;;;;;;;;;;11.20;84.60;;;;;;4450979;32;43196;-82
2022/04/17 08:00:24;;;;;;;;;;;11.30;83.90;;;;;;4451190;32;43284;-81
2022/04/17 08:03:24;;;;;;;;;;;11.30;84.80;;;;;;4451074;32;43475;-81
2022/04/17 08:05:51;;;;;;;;;;;11.30;85.70;;;;;;4437034;32;44571;-81
2022/04/17 08:08:19;;;;;;;;;;;11.30;84.10;;;;;;4450623;32;43174;-81
2022/04/17 08:10:46;;;;;;;;;;;11.30;85.50;;;;;;4436793;32;43811;-81
2022/04/17 08:13:13;;;;;;;;;;;11.40;85.10;;;;;;4450642;32;43806;-81
2022/04/17 08:15:40;;;;;;;;;;;11.40;83.50;;;;;;4450873;32;45584;-81
2022/04/17 08:18:08;;;;;;;;;;;11.40;85.20;;;;;;4437093;32;42871;-81
2022/04/17 08:20:35;;;;;;;;;;;11.40;85.30;;;;;;4450528;32;43981;-81
2022/04/17 08:23:02;;;;;;;;;;;11.40;83.80;;;;;;4436480;32;43083;-81
2022/04/17 08:25:29;;;;;;;;;;;11.40;84.30;;;;;;4450449;32;42955;-81
2022/04/17 08:27:56;;;;;;;;;;;11.50;86.10;;;;;;4436769;32;42847;-81
2022/04/17 08:30:28;;;;;;;;;;;11.50;84.60;;;;;;4436880;32;44193;-81
2022/04/17 08:32:55;;;;;;;;;;;11.50;85.10;;;;;;4436826;32;43372;-82
2022/04/17 08:35:22;;;;;;;;;;;11.50;85.40;;;;;;4450368;32;43349;-81
2022/04/17 08:37:49;;;;;;;;;;;11.50;84.60;;;;;;4436725;32;43006;-81
2022/04/17 08:40:16;;;;;;;;;;;11.50;85.70;;;;;;4450393;32;45117;-81
2022/04/17 08:42:47;;;;;;;;;;;11.60;85.30;;;;;;4450472;32;43983;-82
2022/04/17 08:45:15;;;;;;;;;;;11.60;85.80;;;;;;4450635;32;42415;-81
2022/04/17 08:47:42;;;;;;;;;;;11.60;86.30;;;;;;4450258;32;43058;-81
2022/04/17 08:50:10;;;;;;;;;;;11.60;87.60;;;;;;4438878;32;42991;-81
2022/04/17 08:52:38;;;;;;;;;;;11.60;88.30;;;;;;4439672;32;43255;-81
2022/04/17 08:55:06;;;;;;;;;;;11.60;85.70;;;;;;4453034;32;43529;-81
2022/04/17 08:57:33;;;;;;;;;;;11.60;86.50;;;;;;4453135;32;45145;-81
2022/04/17 09:00:00;;;;;;;;;;;11.70;86.30;;;;;;4453306;32;43856;-81
2022/04/17 09:02:27;;;;;;;;;;;11.70;87.20;;;;;;4439034;32;44028;-81
2022/04/17 09:04:54;;;;;;;;;;;11.70;87.40;;;;;;4452877;32;44264;-81
2022/04/17 09:07:21;;;;;;;;;;;11.70;87.00;;;;;;4453522;32;43202;-81
2022/04/17 09:09:52;;;;;;;;;;;11.70;88.00;;;;;;4439283;32;43198;-80
2022/04/17 09:12:20;;;;;;;;;;;11.80;88.00;;;;;;4439386;32;43475;-80
2022/04/17 09:14:47;;;;;;;;;;;11.80;87.70;;;;;;4453080;32;43234;-81
2022/04/17 09:17:15;;;;;;;;;;;11.80;88.10;;;;;;4438891;32;44180;-80
2022/04/17 09:19:43;;;;;;;;;;;11.80;88.50;;;;;;4439198;32;45520;-80
2022/04/17 09:22:10;;;;;;;;;;;11.80;89.10;;;;;;4438676;32;42795;-81
2022/04/17 09:24:38;;;;;;;;;;;11.80;89.70;;;;;;4438613;32;42724;-81
2022/04/17 09:27:06;;;;;;;;;;;11.80;88.40;;;;;;4438900;32;43303;-81
2022/04/17 09:29:35;;;;;;;;;;;11.90;87.70;;;;;;4452938;32;44231;-82
2022/04/17 09:32:04;;;;;;;;;;;11.80;89.50;;;;;;4438541;32;44712;-80
2022/04/17 09:34:43;;;;;;;;;;;11.90;87.70;;;;;;4438482;32;43291;-80
2022/04/17 09:37:11;;;;;;;;;;;11.90;89.40;;;;;;4438725;32;45488;-80
2022/04/17 09:39:38;;;;;;;;;;;11.90;89.20;;;;;;4438854;32;44211;-80
2022/04/17 09:42:06;;;;;;;;;;;11.90;89.60;;;;;;4452186;32;43900;-81
2022/04/17 09:44:47;;;;;;;;;;;11.90;88.40;;;;;;4452864;32;44313;-80
2022/04/17 09:47:17;;;;;;;;;;;12.00;86.80;;;;;;4452607;32;43085;-80
2022/04/17 09:49:51;;;;;;;;;;;12.00;87.40;;;;;;4438896;32;43391;-80
2022/04/17 09:52:19;;;;;;;;;;;12.00;86.90;;;;;;4452249;32;42941;-81
2022/04/17 09:54:47;;;;;;;;;;;12.00;87.00;;;;;;4452587;32;44687;-80
2022/04/17 09:57:33;;;;;;;;;;;12.00;88.40;;;;;;4452249;32;43908;-81
2022/04/17 10:00:11;;;;;;;;;;;12.00;86.80;;;;;;4438188;32;43452;-80
2022/04/17 10:02:39;;;;;;;;;;;12.10;87.60;;;;;;4452041;32;42599;-81
2022/04/17 10:05:07;;;;;;;;;;;12.10;87.20;;;;;;4438581;32;43898;-80
2022/04/17 10:07:34;;;;;;;;;;;12.10;87.40;;;;;;4437966;32;43148;-80
2022/04/17 10:10:01;;;;;;;;;;;12.10;88.00;;;;;;4438195;32;44283;-80
2022/04/17 10:12:29;;;;;;;;;;;12.10;88.30;;;;;;4452378;32;43820;-80
2022/04/17 10:14:57;;;;;;;;;;;12.20;87.70;;;;;;4452239;32;45364;-80
2022/04/17 10:17:24;;;;;;;;;;;12.20;88.00;;;;;;4437854;32;42760;-80
2022/04/17 10:19:53;;;;;;;;;;;12.20;88.00;;;;;;4451682;32;42589;-80
2022/04/17 10:22:23;;;;;;;;;;;12.30;87.70;;;;;;4437777;32;43171;-80
2022/04/17 10:24:54;;;;;;;;;;;12.20;88.00;;;;;;4437788;32;44121;-81
2022/04/17 10:27:23;;;;;;;;;;;12.30;88.40;;;;;;4438219;32;44657;-80
2022/04/17 10:29:55;;;;;;;;;;;12.30;89.40;;;;;;4451912;32;43473;-80
2022/04/17 10:32:35;;;;;;;;;;;12.30;89.80;;;;;;4451714;32;42974;-81
2022/04/17 10:35:09;;;;;;;;;;;12.30;89.40;;;;;;4437753;32;44361;-80
2022/04/17 10:37:51;;;;;;;;;;;12.40;89.50;;;;;;4437575;32;42683;-80
2022/04/17 10:40:18;;;;;;;;;;;12.40;90.00;;;;;;4437825;32;42613;-81
2022/04/17 10:43:15;;;;;;;;;;;12.40;90.20;;;;;;4451286;32;44003;-81
2022/04/17 10:46:00;;;;;;;;;;;12.40;89.90;;;;;;4435133;32;42841;-80
2022/04/17 10:48:27;;;;;;;;;;;12.50;90.30;;;;;;4437925;32;45858;-81
2022/04/17 10:50:54;;;;;;;;;;;12.50;90.10;;;;;;4437540;32;42566;-82
2022/04/17 10:53:21;;;;;;;;;;;12.50;90.00;;;;;;4451350;32;44055;-80
2022/04/17 10:56:00;;;;;;;;;;;12.50;90.10;;;;;;4437359;32;43233;-80
2022/04/17 10:58:35;;;;;;;;;;;12.50;90.40;;;;;;4451451;32;43823;-80
2022/04/17 11:01:02;;;;;;;;;;;12.60;90.40;;;;;;4451712;32;44211;-80
2022/04/17 11:03:29;;;;;;;;;;;12.60;90.60;;;;;;4451015;32;44269;-80
2022/04/17 11:06:09;;;;;;;;;;;12.70;90.90;;;;;;4437260;32;42526;-80
2022/04/17 11:08:47;;;;;;;;;;;12.70;90.80;;;;;;4451411;32;43331;-81
2022/04/17 11:11:14;;;;;;;;;;;12.70;90.90;;;;;;4437308;32;43659;-81
2022/04/17 11:14:00;;;;;;;;;;;12.70;90.80;;;;;;4451462;32;42625;-80
2022/04/17 11:16:28;;;;;;;;;;;12.70;90.90;;;;;;4437097;32;42948;-80
2022/04/17 11:18:56;;;;;;;;;;;12.70;91.00;;;;;;4450845;32;43482;-80
2022/04/17 11:21:35;;;;;;;;;;;12.80;91.10;;;;;;4436975;32;43920;-80
2022/04/17 11:24:02;;;;;;;;;;;12.80;91.20;;;;;;4451413;32;43493;-80
2022/04/17 11:27:02;;;;;;;;;;;12.80;91.40;;;;;;4437384;32;42679;-80
2022/04/17 11:29:41;;;;;;;;;;;12.80;90.70;;;;;;4408694;32;45562;-80
2022/04/17 11:32:17;;;;;;;;;;;12.90;90.80;;;;;;4437228;32;43848;-81
2022/04/17 11:34:47;;;;;;;;;;;12.90;91.10;;;;;;4450694;32;43468;-80
2022/04/17 11:37:17;;;;;;;;;;;12.90;91.00;;;;;;4450666;32;42602;-80
2022/04/17 11:39:44;;;;;;;;;;;12.90;91.20;;;;;;4450832;32;43784;-81
2022/04/17 11:42:12;;;;;;;;;;;13.00;90.70;;;;;;4436926;32;43205;-81
2022/04/17 11:44:42;;;;;;;;;;;13.00;90.60;;;;;;4451051;32;43537;-81
2022/04/17 11:47:19;;;;;;;;;;;13.00;91.00;;;;;;4451288;32;45835;-81
2022/04/17 11:49:47;;;;;;;;;;;13.00;90.80;;;;;;4450747;32;43420;-80
2022/04/17 11:52:14;;;;;;;;;;;13.10;90.80;;;;;;4436786;32;42281;-80
2022/04/17 11:54:41;;;;;;;;;;;13.10;90.50;;;;;;4436723;32;43772;-80
2022/04/17 11:57:09;;;;;;;;;;;13.10;90.30;;;;;;4437218;32;43193;-80
2022/04/17 11:59:55;;;;;;;;;;;13.20;90.60;;;;;;4451084;32;44189;-80
2022/04/17 12:02:23;;;;;;;;;;;13.20;91.00;;;;;;4450562;32;43269;-80
2022/04/17 12:04:52;;;;;;;;;;;13.20;90.70;;;;;;4436990;32;44009;-80
2022/04/17 12:07:26;;;;;;;;;;;13.30;90.50;;;;;;4436550;32;44269;-80
2022/04/17 12:10:03;;;;;;;;;;;13.30;90.80;;;;;;4450862;32;43323;-81
2022/04/17 12:12:34;;;;;;;;;;;13.30;91.00;;;;;;4437169;32;43329;-80
2022/04/17 12:15:03;;;;;;;;;;;13.40;91.10;;;;;;4437846;32;20036;-80
2022/04/17 12:17:32;;;;;;;;;;;13.40;90.90;;;;;;4450408;32;43185;-80
2022/04/17 12:19:59;;;;;;;;;;;13.40;90.80;;;;;;4436612;32;43830;-80
2022/04/17 12:22:30;;;;;;;;;;;13.50;90.90;;;;;;4437407;32;43827;-80
2022/04/17 12:24:58;;;;;;;;;;;13.50;91.00;;;;;;4438749;32;43473;-80
2022/04/17 12:27:26;;;;;;;;;;;13.50;91.10;;;;;;4439453;32;44541;-80
2022/04/17 12:29:53;;;;;;;;;;;13.60;90.80;;;;;;4453464;32;43840;-80
2022/04/17 12:32:21;;;;;;;;;;;13.60;90.60;;;;;;4439706;32;43857;-80
2022/04/17 12:34:58;;;;;;;;;;;13.60;90.60;;;;;;4439858;32;44460;-81
2022/04/17 12:37:25;;;;;;;;;;;13.60;90.50;;;;;;4453369;32;43284;-80
2022/04/17 12:40:05;;;;;;;;;;;13.70;90.60;;;;;;4453580;32;44459;-80
2022/04/17 12:42:32;;;;;;;;;;;13.70;90.80;;;;;;4439381;32;42753;-80
2022/04/17 12:44:59;;;;;;;;;;;13.70;90.70;;;;;;4453380;32;43957;-80
2022/04/17 12:47:26;;;;;;;;;;;13.70;90.70;;;;;;4452976;32;42907;-80
2022/04/17 12:50:01;;;;;;;;;;;13.80;90.70;;;;;;4439373;32;43207;-80
2022/04/17 12:52:28;;;;;;;;;;;13.80;90.70;;;;;;4453329;32;43458;-80
2022/04/17 12:54:56;;;;;;;;;;;13.80;90.30;;;;;;4453108;32;43272;-80
2022/04/17 12:57:23;;;;;;;;;;;13.90;90.60;;;;;;4453676;32;43664;-80
2022/04/17 12:59:51;;;;;;;;;;;13.90;90.30;;;;;;4452896;32;43924;-80
2022/04/17 13:02:21;;;;;;;;;;;14.00;90.40;;;;;;4439411;32;43018;-79
2022/04/17 13:04:51;;;;;;;;;;;14.00;90.40;;;;;;4453318;32;43279;-79
2022/04/17 13:07:18;;;;;;;;;;;14.10;90.70;;;;;;4452821;32;43878;-80
2022/04/17 13:09:52;;;;;;;;;;;14.10;90.60;;;;;;4438972;32;43474;-80
2022/04/17 13:12:32;;;;;;;;;;;14.10;90.30;;;;;;4439318;32;44151;-80
2022/04/17 13:15:00;;;;;;;;;;;14.10;90.00;;;;;;4439539;32;43872;-80
2022/04/17 13:17:28;;;;;;;;;;;14.20;90.40;;;;;;4452711;32;44150;-80
2022/04/17 13:19:55;;;;;;;;;;;14.20;90.20;;;;;;4452625;32;43958;-80
2022/04/17 13:22:22;;;;;;;;;;;14.30;90.20;;;;;;4439044;32;42885;-80
2022/04/17 13:24:49;;;;;;;;;;;14.30;90.40;;;;;;4452513;32;43920;-79
2022/04/17 13:27:16;;;;;;;;;;;14.40;90.20;;;;;;4438628;32;44192;-80
2022/04/17 13:29:44;;;;;;;;;;;14.40;89.80;;;;;;4452916;32;43416;-81
2022/04/17 13:32:11;;;;;;;;;;;14.40;89.90;;;;;;4452292;32;44277;-81
2022/04/17 13:34:42;;;;;;;;;;;14.50;89.40;;;;;;4438381;32;44277;-81
2022/04/17 13:39:55;;;;;;;;;;;14.50;89.40;;;;;;4452839;32;46026;-80
2022/04/17 13:42:22;;;;;;;;;;;14.60;88.20;;;;;;4438520;32;43193;-80
2022/04/17 13:44:49;;;;;;;;;;;14.60;89.30;;;;;;4452389;32;43855;-79
2022/04/17 13:47:16;;;;;;;;;;;14.60;90.00;;;;;;4438806;32;44739;-80
2022/04/17 13:49:43;;;;;;;;;;;14.70;89.40;;;;;;4452187;32;42294;-79
2022/04/17 13:52:10;;;;;;;;;;;14.70;89.30;;;;;;4452577;32;42988;-80
2022/04/17 13:54:37;;;;;;;;;;;14.80;89.40;;;;;;4452041;32;45073;-80
2022/04/17 13:57:04;;;;;;;;;;;14.80;88.50;;;;;;4452074;32;44136;-80
2022/04/17 13:59:31;;;;;;;;;;;14.80;88.90;;;;;;4452148;32;43042;-80
2022/04/17 14:01:58;;;;;;;;;;;14.90;88.90;;;;;;4452869;32;43911;-80
2022/04/17 14:04:25;;;;;;;;;;;14.90;88.60;;;;;;4452271;32;42624;-80
2022/04/17 14:06:52;;;;;;;;;;;15.00;88.30;;;;;;4438021;32;44027;-80
2022/04/17 14:09:19;;;;;;;;;;;15.00;88.80;;;;;;4438444;32;43905;-80
2022/04/17 14:11:47;;;;;;;;;;;15.00;87.60;;;;;;4451924;32;43915;-80
2022/04/17 14:14:14;;;;;;;;;;;15.10;87.50;;;;;;4437852;32;44340;-80
2022/04/17 14:16:41;;;;;;;;;;;15.10;86.90;;;;;;4438308;32;43173;-80
2022/04/17 14:19:08;;;;;;;;;;;15.10;87.10;;;;;;4452010;32;43741;-80
2022/04/17 14:21:35;;;;;;;;;;;15.20;87.80;;;;;;4451681;32;43993;-80
2022/04/17 14:24:02;;;;;;;;;;;15.20;85.30;;;;;;4438457;32;43441;-80
2022/04/17 14:26:29;;;;;;;;;;;15.30;87.30;;;;;;4451827;32;42705;-79
2022/04/17 14:28:57;;;;;;;;;;;15.30;87.40;;;;;;4438262;32;44215;-80
2022/04/17 14:31:24;;;;;;;;;;;15.30;87.10;;;;;;4437894;32;45106;-79
2022/04/17 14:33:53;;;;;;;;;;;15.30;88.00;;;;;;4451954;32;42962;-79
2022/04/17 14:36:21;;;;;;;;;;;15.40;86.80;;;;;;4437602;32;43969;-80
2022/04/17 14:38:48;;;;;;;;;;;15.40;87.50;;;;;;4437519;32;43751;-80
2022/04/17 14:41:15;;;;;;;;;;;15.50;87.30;;;;;;4437266;32;42756;-80
2022/04/17 14:43:42;;;;;;;;;;;15.50;87.70;;;;;;4451491;32;43323;-80